Time;durP1;ratioP1;P1;durP2;ratioP2;P2;SDS_P1;SDS_P2;PMS_P1;PMS_P2;Temp;Humidity;BMP_temperature;BMP_pressure;BME280_temperature;BME280_humidity;BME280_pressure;Samples;Min_cycle;Max_cycle;Signal;HPM_P1;HPM_P2
2021/10/18 00:01:13;;;;;;;;;20.00;19.00;;;;;10.18;63.71;100897.44;4997215;28;45245;-80
2021/10/18 00:03:38;;;;;;;;;20.50;17.50;;;;;10.14;63.57;100887.88;5011422;28;45168;-80
2021/10/18 00:06:04;;;;;;;;;18.25;17.25;;;;;10.15;63.50;100886.09;5015931;28;45173;-80
2021/10/18 00:08:29;;;;;;;;;19.50;19.00;;;;;10.15;63.81;100889.63;5016498;28;46135;-80
2021/10/18 00:10:55;;;;;;;;;19.50;18.00;;;;;10.13;63.84;100882.66;4998677;28;45188;-80
2021/10/18 00:13:20;;;;;;;;;19.75;17.50;;;;;10.12;63.57;100886.25;5016403;28;45225;-80
2021/10/18 00:15:46;;;;;;;;;20.75;18.75;;;;;10.09;63.96;100876.63;5016782;28;45206;-80
2021/10/18 00:18:11;;;;;;;;;19.00;18.25;;;;;10.09;63.88;100876.63;5016287;28;45240;-80
2021/10/18 00:20:37;;;;;;;;;18.25;16.25;;;;;10.07;64.18;100877.63;5016695;28;45182;-80
2021/10/18 00:23:02;;;;;;;;;25.00;15.50;;;;;10.00;64.26;100869.97;5016337;28;45356;-80
2021/10/18 00:25:27;;;;;;;;;17.00;15.75;;;;;10.02;63.66;100875.22;5019545;28;45291;-79
2021/10/18 00:27:53;;;;;;;;;18.50;18.25;;;;;9.97;64.44;100866.59;5019670;28;46230;-80
2021/10/18 00:30:18;;;;;;;;;18.25;16.50;;;;;9.96;64.15;100873.72;5020244;28;45220;-80
2021/10/18 00:32:43;;;;;;;;;18.00;15.00;;;;;9.95;64.26;100876.44;5020164;28;45227;-80
2021/10/18 00:35:09;;;;;;;;;19.50;17.00;;;;;9.92;64.26;100877.44;5019860;28;45194;-80
2021/10/18 00:37:35;;;;;;;;;20.25;16.25;;;;;9.88;64.58;100872.34;5019773;28;46134;-80
2021/10/18 00:40:00;;;;;;;;;21.00;16.75;;;;;9.90;64.64;100884.59;5001743;28;46146;-80
2021/10/18 00:42:26;;;;;;;;;17.50;16.50;;;;;9.85;64.73;100879.50;5019719;28;45275;-80
2021/10/18 00:44:51;;;;;;;;;19.50;16.50;;;;;9.88;64.16;100886.47;5019707;28;45469;-80
2021/10/18 00:47:18;;;;;;;;;18.00;16.50;;;;;9.84;64.22;100893.72;5019690;28;46356;-80
2021/10/18 00:49:44;;;;;;;;;21.25;17.25;;;;;9.81;64.18;100888.56;5019557;28;45125;-80
2021/10/18 00:52:09;;;;;;;;;20.00;18.00;;;;;9.80;64.83;100891.28;5019772;28;45276;-80
2021/10/18 00:54:35;;;;;;;;;16.25;15.50;;;;;9.76;64.69;100895.91;5019561;28;45229;-80
2021/10/18 00:57:00;;;;;;;;;18.50;18.00;;;;;9.78;64.87;100904.63;5019507;28;46128;-80
2021/10/18 00:59:26;;;;;;;;;16.25;15.00;;;;;9.76;64.39;100901.22;5019677;28;45201;-80
2021/10/18 01:01:53;;;;;;;;;16.50;15.50;;;;;9.74;64.77;100892.44;5019320;28;45207;-80
2021/10/18 01:04:19;;;;;;;;;16.25;15.00;;;;;9.71;64.90;100897.03;4999846;28;45291;-80
2021/10/18 01:06:45;;;;;;;;;19.00;15.75;;;;;9.70;65.18;100897.97;4999274;28;45966;-80
2021/10/18 01:09:10;;;;;;;;;15.50;15.50;;;;;9.67;65.48;100897.16;4999263;28;45108;-80
2021/10/18 01:11:35;;;;;;;;;17.75;15.50;;;;;9.67;65.09;100893.66;4999392;28;45185;-80
2021/10/18 01:14:01;;;;;;;;;20.00;18.25;;;;;9.58;65.47;100886.97;4999557;28;45162;-80
2021/10/18 01:16:26;;;;;;;;;18.00;16.75;;;;;9.63;65.35;100898.25;4999290;28;45403;-80
2021/10/18 01:18:51;;;;;;;;;16.00;15.00;;;;;9.66;65.61;100908.72;4999203;28;45320;-80
2021/10/18 01:21:17;;;;;;;;;23.00;19.25;;;;;9.64;65.48;100891.16;4999543;28;45199;-80
2021/10/18 01:23:42;;;;;;;;;15.00;15.00;;;;;9.66;65.90;100905.19;4998903;28;45220;-80
2021/10/18 01:26:07;;;;;;;;;21.75;17.00;;;;;9.65;65.43;100887.56;4999106;28;46494;-80
2021/10/18 01:28:32;;;;;;;;;19.50;19.00;;;;;9.61;65.55;100894.78;4999133;28;45172;-80
2021/10/18 01:30:58;;;;;;;;;20.25;17.50;;;;;9.64;65.60;100899.97;4999550;28;45301;-80
2021/10/18 01:33:23;;;;;;;;;20.75;17.75;;;;;9.62;65.68;100898.31;4999032;28;45410;-80
2021/10/18 01:35:49;;;;;;;;;26.00;18.50;;;;;9.66;66.15;100894.56;4997528;28;45264;-80
2021/10/18 01:38:14;;;;;;;;;29.00;21.50;;;;;9.59;66.20;100875.44;4998059;28;45213;-80
2021/10/18 01:40:40;;;;;;;;;17.75;16.75;;;;;9.63;65.43;100877.03;4998548;28;45279;-80
2021/10/18 01:43:06;;;;;;;;;22.25;21.50;;;;;9.60;65.49;100876.28;4999023;28;45248;-80
2021/10/18 01:45:31;;;;;;;;;23.00;20.50;;;;;9.60;66.15;100885.09;4980321;28;47332;-78
2021/10/18 01:47:56;;;;;;;;;22.50;19.00;;;;;9.60;65.93;100893.06;4999029;28;45105;-78
2021/10/18 01:50:25;;;;;;;;;21.75;21.00;;;;;9.61;66.36;100880.66;4998610;28;45139;-78
2021/10/18 01:52:52;;;;;;;;;21.50;17.50;;;;;9.57;66.11;100871.97;4998597;28;45287;-79
2021/10/18 01:55:19;;;;;;;;;20.75;18.50;;;;;9.58;66.18;100878.16;4998787;28;45619;-78
2021/10/18 01:57:45;;;;;;;;;18.50;18.00;;;;;9.57;66.30;100876.44;4999060;28;45646;-78
2021/10/18 02:00:12;;;;;;;;;23.25;20.25;;;;;9.48;65.89;100856.47;4998019;28;45141;-78
2021/10/18 02:02:38;;;;;;;;;25.25;21.50;;;;;9.55;65.76;100865.88;4997702;28;45428;-78
2021/10/18 02:05:03;;;;;;;;;19.25;18.00;;;;;9.55;65.89;100867.66;4998313;28;45356;-79
2021/10/18 02:07:29;;;;;;;;;20.50;18.75;;;;;9.53;66.07;100859.75;4998506;28;45224;-78
2021/10/18 02:09:54;;;;;;;;;17.75;16.75;;;;;9.54;66.17;100858.84;4999075;28;45234;-79
2021/10/18 02:12:23;;;;;;;;;18.67;18.67;;;;;9.49;66.15;100848.44;4998991;28;45169;-79
2021/10/18 02:14:49;;;;;;;;;22.00;18.50;;;;;9.52;66.44;100862.50;4998261;28;46121;-79
2021/10/18 02:17:15;;;;;;;;;20.75;19.50;;;;;9.47;66.04;100852.94;4998655;28;45732;-79
2021/10/18 02:19:41;;;;;;;;;23.75;18.25;;;;;9.45;66.21;100849.50;4999229;28;45282;-79
2021/10/18 02:22:06;;;;;;;;;22.00;19.50;;;;;9.44;66.21;100847.78;4998671;28;45248;-79
2021/10/18 02:24:31;;;;;;;;;23.75;18.00;;;;;9.46;66.02;100853.03;4998075;28;46299;-79
2021/10/18 02:26:57;;;;;;;;;20.00;18.75;;;;;9.43;66.40;100847.84;4998452;28;45196;-79
2021/10/18 02:29:22;;;;;;;;;20.25;18.50;;;;;9.45;66.04;100857.47;4998773;28;45166;-79
2021/10/18 02:31:47;;;;;;;;;21.50;18.75;;;;;9.43;66.36;100855.81;4998704;28;45153;-79
2021/10/18 02:34:13;;;;;;;;;19.50;19.00;;;;;9.40;66.06;100848.84;4996979;28;47307;-79
2021/10/18 02:36:38;;;;;;;;;19.75;16.50;;;;;9.39;66.54;100848.94;4998233;28;45062;-79
2021/10/18 02:39:04;;;;;;;;;19.75;17.50;;;;;9.38;65.96;100847.19;4998567;28;45195;-79
2021/10/18 02:41:30;;;;;;;;;20.25;18.00;;;;;9.34;66.29;100849.16;4997431;28;45363;-79
2021/10/18 02:43:55;;;;;;;;;19.25;18.00;;;;;9.31;66.04;100846.63;4997946;28;45980;-79
2021/10/18 02:46:21;;;;;;;;;19.75;17.50;;;;;9.28;66.03;100844.97;4998083;28;45192;-79
2021/10/18 02:48:46;;;;;;;;;20.67;20.67;;;;;9.26;66.32;100840.66;4996881;28;45350;-79
2021/10/18 02:51:12;;;;;;;;;21.75;21.00;;;;;9.22;66.63;100826.69;4997996;28;45285;-79
2021/10/18 02:53:37;;;;;;;;;23.00;18.25;;;;;9.23;66.68;100832.84;4997927;28;45887;-79
2021/10/18 02:56:02;;;;;;;;;17.75;16.50;;;;;9.24;66.71;100831.94;4997334;28;45268;-79
2021/10/18 02:58:28;;;;;;;;;19.00;17.25;;;;;9.22;66.67;100832.00;4997815;28;45152;-79
2021/10/18 03:00:53;;;;;;;;;18.50;17.00;;;;;9.20;66.76;100831.19;4998257;28;45145;-79
2021/10/18 03:03:18;;;;;;;;;18.67;16.00;;;;;9.20;66.63;100831.19;4997019;28;46087;-79
2021/10/18 03:05:44;;;;;;;;;19.00;17.75;;;;;9.19;66.16;100825.94;4997481;28;45396;-78
2021/10/18 03:08:09;;;;;;;;;23.50;19.00;;;;;9.12;66.66;100825.34;4997821;28;45334;-80
2021/10/18 03:10:39;;;;;;;;;20.25;19.25;;;;;9.15;66.30;100830.56;4997685;28;45270;-80
2021/10/18 03:13:05;;;;;;;;;20.50;19.75;;;;;9.12;66.90;100830.66;4997444;28;46246;-80
2021/10/18 03:15:30;;;;;;;;;22.25;20.25;;;;;9.09;66.46;100823.72;4997459;28;45170;-80
2021/10/18 03:17:55;;;;;;;;;19.00;17.67;;;;;9.08;66.96;100829.97;4997322;28;45153;-80
2021/10/18 03:20:21;;;;;;;;;24.67;19.67;;;;;9.05;66.81;100823.91;4996589;28;45281;-80
2021/10/18 03:22:46;;;;;;;;;17.50;16.75;;;;;9.10;66.95;100825.44;4997015;28;46389;-79
2021/10/18 03:25:11;;;;;;;;;23.25;22.00;;;;;9.06;67.04;100828.28;4996181;28;45204;-79
2021/10/18 03:27:37;;;;;;;;;22.00;18.50;;;;;9.08;67.02;100835.25;4996713;28;45290;-80
2021/10/18 03:30:04;;;;;;;;;25.50;22.75;;;;;9.09;67.06;100829.03;4997046;28;45185;-80
2021/10/18 03:32:29;;;;;;;;;22.00;20.50;;;;;9.05;67.22;100823.91;4996578;28;46363;-79
2021/10/18 03:34:55;;;;;;;;;21.25;19.50;;;;;9.03;67.02;100823.13;4994783;28;45209;-79
2021/10/18 03:37:20;;;;;;;;;23.25;18.75;;;;;9.07;67.65;100832.69;4997429;28;45216;-80
2021/10/18 03:39:46;;;;;;;;;21.75;21.75;;;;;9.07;67.37;100830.03;4997785;28;45136;-79
2021/10/18 03:42:11;;;;;;;;;19.75;18.50;;;;;9.07;67.66;100830.03;4995863;28;48689;-80
2021/10/18 03:44:36;;;;;;;;;20.50;18.75;;;;;9.02;67.50;100821.41;4997360;28;45217;-79
2021/10/18 03:47:02;;;;;;;;;25.50;20.75;;;;;9.07;67.22;100838.00;4997295;28;45327;-79
2021/10/18 03:49:27;;;;;;;;;25.00;20.75;;;;;9.07;67.20;100838.00;4997796;28;45235;-79
2021/10/18 03:51:52;;;;;;;;;24.75;22.00;;;;;9.03;67.01;100839.91;4997478;28;45433;-79
2021/10/18 03:54:17;;;;;;;;;21.50;19.00;;;;;9.05;67.32;100839.81;4996056;28;45470;-79
2021/10/18 03:56:43;;;;;;;;;20.25;19.00;;;;;9.02;67.38;100835.53;4997070;28;45172;-79
2021/10/18 03:59:08;;;;;;;;;19.75;17.00;;;;;8.97;67.22;100834.88;4996211;28;45411;-79
2021/10/18 04:01:34;;;;;;;;;23.25;19.00;;;;;9.00;67.50;100836.53;4997168;28;45469;-79
2021/10/18 04:03:59;;;;;;;;;19.00;17.25;;;;;8.96;67.15;100834.03;4996836;28;45259;-79
2021/10/18 04:06:24;;;;;;;;;20.33;19.00;;;;;9.00;67.51;100847.16;4997064;28;45210;-79
2021/10/18 04:08:52;;;;;;;;;18.00;16.25;;;;;8.97;67.31;100850.78;4997063;28;45117;-79
2021/10/18 04:11:17;;;;;;;;;21.75;18.00;;;;;8.99;67.21;100851.56;4996888;28;45903;-79
2021/10/18 04:13:43;;;;;;;;;23.00;20.25;;;;;8.92;67.57;100845.69;4996566;28;45272;-79
2021/10/18 04:16:09;;;;;;;;;18.75;16.75;;;;;8.90;67.50;100852.00;4979230;28;45259;-79
2021/10/18 04:18:35;;;;;;;;;18.75;18.00;;;;;8.87;67.53;100852.97;4996797;28;45343;-79
2021/10/18 04:21:00;;;;;;;;;22.75;20.50;;;;;8.89;67.34;100858.22;4996679;28;45347;-79
2021/10/18 04:23:26;;;;;;;;;18.67;16.00;;;;;8.86;67.86;100861.84;4996752;28;45231;-79
2021/10/18 04:25:52;;;;;;;;;23.25;20.75;;;;;8.87;67.79;100860.06;4996820;28;45204;-79
2021/10/18 04:28:18;;;;;;;;;22.00;19.50;;;;;8.86;67.56;100858.34;4996619;28;45199;-79
2021/10/18 04:30:44;;;;;;;;;20.00;17.50;;;;;8.85;67.68;100869.88;4996804;28;46625;-80
2021/10/18 04:33:09;;;;;;;;;17.50;16.25;;;;;8.84;67.61;100862.88;4996474;28;45519;-80
2021/10/18 04:35:35;;;;;;;;;18.75;18.75;;;;;8.83;67.86;100866.44;4996773;28;45164;-79
2021/10/18 04:38:00;;;;;;;;;23.00;20.25;;;;;8.82;67.60;100868.22;4996690;28;45217;-79
2021/10/18 04:40:26;;;;;;;;;18.25;18.25;;;;;8.82;67.62;100876.16;4996663;28;46008;-80
2021/10/18 04:42:51;;;;;;;;;21.00;17.00;;;;;8.78;67.95;100870.16;4996701;28;45216;-80
2021/10/18 04:45:16;;;;;;;;;19.67;18.33;;;;;8.79;67.71;100877.19;4997010;28;45475;-79
2021/10/18 04:47:47;;;;;;;;;19.25;17.00;;;;;8.75;67.93;100880.00;4996695;28;45251;-80
2021/10/18 04:50:13;;;;;;;;;19.75;18.00;;;;;8.75;67.73;100890.59;4996309;28;45841;-79
2021/10/18 04:52:38;;;;;;;;;24.25;17.75;;;;;8.72;67.70;100888.09;4996620;28;45161;-79
2021/10/18 04:55:04;;;;;;;;;24.50;19.25;;;;;8.72;68.14;100893.41;4996346;28;45251;-80
2021/10/18 04:57:30;;;;;;;;;19.25;18.50;;;;;8.74;67.90;100900.38;4996432;28;45173;-80
2021/10/18 04:59:55;;;;;;;;;19.00;17.00;;;;;8.75;67.88;100898.56;4995005;28;47771;-80
2021/10/18 05:02:20;;;;;;;;;21.00;20.25;;;;;8.73;68.57;100903.09;4996167;28;45295;-79
2021/10/18 05:04:45;;;;;;;;;20.33;17.67;;;;;8.72;68.15;100904.88;4996422;28;45511;-79
2021/10/18 05:07:11;;;;;;;;;23.00;18.33;;;;;8.65;68.38;100892.81;4996320;28;45177;-79
2021/10/18 05:09:36;;;;;;;;;20.00;17.00;;;;;8.70;67.82;100892.63;4996566;28;45115;-80
2021/10/18 05:12:03;;;;;;;;;19.50;18.00;;;;;8.68;68.37;100892.69;4999699;28;45270;-79
2021/10/18 05:14:29;;;;;;;;;18.00;15.75;;;;;8.64;67.98;100877.81;4999967;28;45283;-79
2021/10/18 05:16:55;;;;;;;;;19.50;17.25;;;;;8.69;68.25;100896.19;4999446;28;45185;-79
2021/10/18 05:19:21;;;;;;;;;16.00;16.00;;;;;8.66;68.33;100891.88;4999375;28;46088;-79
2021/10/18 05:21:46;;;;;;;;;23.50;21.00;;;;;8.64;67.95;100891.09;4999447;28;45260;-79
2021/10/18 05:24:11;;;;;;;;;18.00;15.33;;;;;8.63;68.27;100886.69;4999541;28;45214;-79
2021/10/18 05:26:37;;;;;;;;;16.67;16.33;;;;;8.61;68.64;100891.22;4999416;28;45212;-79
2021/10/18 05:29:03;;;;;;;;;25.00;22.00;;;;;8.60;68.69;100894.78;4999231;28;45375;-80
2021/10/18 05:31:28;;;;;;;;;19.00;17.00;;;;;8.57;68.43;100893.13;4996955;28;45747;-79
2021/10/18 05:33:53;;;;;;;;;24.50;17.75;;;;;8.56;68.65;100891.38;4998774;28;45263;-79
2021/10/18 05:36:18;;;;;;;;;20.33;20.00;;;;;8.53;68.77;100886.22;4999131;28;45285;-80
2021/10/18 05:38:44;;;;;;;;;31.67;25.00;;;;;8.56;68.70;100893.19;4998956;28;45212;-80
2021/10/18 05:41:09;;;;;;;;;24.25;21.25;;;;;8.57;68.56;100894.91;4999302;28;45196;-79
2021/10/18 05:43:34;;;;;;;;;22.50;20.25;;;;;8.54;68.93;100887.94;4999240;28;45059;-79
2021/10/18 05:46:00;;;;;;;;;28.75;24.50;;;;;8.55;68.51;100891.44;4999238;28;45193;-79
2021/10/18 05:48:25;;;;;;;;;27.50;23.25;;;;;8.53;68.96;100895.97;4998600;28;45224;-79
2021/10/18 05:50:51;;;;;;;;;23.50;22.75;;;;;8.53;68.27;100906.56;4999125;28;45107;-79
2021/10/18 05:53:17;;;;;;;;;25.75;24.75;;;;;8.53;68.79;100910.06;4999021;28;45216;-79
2021/10/18 05:55:42;;;;;;;;;24.75;21.75;;;;;8.52;68.96;100899.53;4998913;28;45252;-80
2021/10/18 05:58:09;;;;;;;;;25.75;23.50;;;;;8.53;69.16;100912.72;4998635;28;46153;-80
2021/10/18 06:00:37;;;;;;;;;27.50;25.00;;;;;8.53;69.34;100903.91;4999017;28;45217;-77
2021/10/18 06:03:03;;;;;;;;;35.00;29.75;;;;;8.57;69.89;100902.88;4997481;28;45188;-77
2021/10/18 06:05:29;;;;;;;;;25.75;24.00;;;;;8.57;70.32;100911.66;4998664;28;45231;-77
2021/10/18 06:08:05;;;;;;;;;27.25;23.75;;;;;8.56;70.23;100901.97;4998021;28;45277;-77
2021/10/18 06:10:30;;;;;;;;;34.00;27.75;;;;;8.61;69.65;100904.47;4998289;28;45805;-77
2021/10/18 06:12:55;;;;;;;;;25.00;24.50;;;;;8.65;70.66;100903.41;4998298;28;45227;-77
2021/10/18 06:15:21;;;;;;;;;27.33;21.00;;;;;8.67;70.12;100904.19;4998627;28;45052;-77
2021/10/18 06:17:46;;;;;;;;;25.25;24.00;;;;;8.73;71.18;100895.13;4997882;28;45145;-77
2021/10/18 06:20:12;;;;;;;;;28.25;27.25;;;;;8.79;70.72;100901.03;4997295;28;45415;-77
2021/10/18 06:22:38;;;;;;;;;27.75;25.50;;;;;8.88;70.69;100905.09;4997547;28;45344;-78
2021/10/18 06:25:04;;;;;;;;;26.25;21.25;;;;;8.98;70.61;100910.88;4998531;28;45172;-78
2021/10/18 06:27:29;;;;;;;;;25.25;24.25;;;;;9.05;70.21;100908.78;4997936;28;46347;-78
2021/10/18 06:29:54;;;;;;;;;24.75;21.50;;;;;9.08;69.79;100906.88;4997749;28;45147;-78
2021/10/18 06:32:20;;;;;;;;;23.75;20.75;;;;;9.21;70.21;100915.16;4998654;28;45110;-78
2021/10/18 06:34:45;;;;;;;;;22.33;20.33;;;;;9.25;70.66;100916.75;4998031;28;45298;-78
2021/10/18 06:37:11;;;;;;;;;25.75;24.50;;;;;9.31;70.41;100920.94;4997572;28;45204;-77
2021/10/18 06:39:36;;;;;;;;;25.25;19.75;;;;;9.36;69.91;100915.41;4998289;28;45197;-81
2021/10/18 06:42:02;;;;;;;;;27.75;21.50;;;;;9.45;69.95;100918.53;4997802;28;45188;-80
2021/10/18 06:44:27;;;;;;;;;29.50;28.25;;;;;9.53;70.06;100918.16;4998496;28;45180;-80
2021/10/18 06:46:52;;;;;;;;;28.33;24.33;;;;;9.59;69.98;100912.59;4997532;28;45449;-81
2021/10/18 06:49:18;;;;;;;;;36.00;26.50;;;;;9.64;69.80;100915.88;4996781;28;45307;-79
2021/10/18 06:51:51;;;;;;;;;25.50;24.25;;;;;9.72;69.73;100922.63;4997215;28;45232;-82
2021/10/18 06:54:16;;;;;;;;;27.00;23.00;;;;;9.79;69.52;100910.81;4997606;28;45248;-80
2021/10/18 06:56:44;;;;;;;;;23.50;21.00;;;;;9.88;69.83;100912.19;4997641;28;45211;-80
2021/10/18 06:59:11;;;;;;;;;25.75;22.25;;;;;9.95;70.00;100918.94;4997534;28;45172;-80
2021/10/18 07:01:37;;;;;;;;;25.50;22.50;;;;;10.04;70.12;100921.16;4979232;28;45312;-80
2021/10/18 07:04:04;;;;;;;;;22.75;19.75;;;;;10.12;70.15;100923.47;5013434;28;45235;-80
2021/10/18 07:06:29;;;;;;;;;26.75;25.75;;;;;10.23;69.95;100925.59;5016991;28;45242;-79
2021/10/18 07:08:54;;;;;;;;;27.00;25.75;;;;;10.35;70.11;100925.03;5016396;28;45265;-79
2021/10/18 07:11:19;;;;;;;;;27.67;24.00;;;;;10.52;70.08;100934.84;5017379;28;45189;-79
2021/10/18 07:13:45;;;;;;;;;24.75;23.25;;;;;10.69;69.67;100934.03;5016405;28;45395;-80
2021/10/18 07:16:10;;;;;;;;;25.00;23.33;;;;;10.86;69.78;100928.72;5016685;28;45379;-80
2021/10/18 07:18:35;;;;;;;;;25.50;23.75;;;;;11.01;69.16;100926.19;5017007;28;45132;-80
2021/10/18 07:21:01;;;;;;;;;48.33;38.67;;;;;11.18;69.56;100928.00;5017550;28;45200;-80
2021/10/18 07:23:28;;;;;;;;;45.67;36.33;;;;;11.33;68.89;100918.34;5017527;28;45276;-87
2021/10/18 07:25:53;;;;;;;;;27.25;23.25;;;;;11.51;68.94;100927.16;5021336;28;46273;-86
2021/10/18 07:28:18;;;;;;;;;19.75;19.00;;;;;11.67;68.72;100924.53;5040977;28;44599;-85
2021/10/18 07:30:45;;;;;;;;;26.00;23.25;;;;;11.84;68.81;100926.28;5040096;28;44623;-86
2021/10/18 07:33:11;;;;;;;;;23.00;21.50;;;;;12.05;68.14;100926.94;5040922;28;45283;-85
2021/10/18 07:35:36;;;;;;;;;23.33;21.00;;;;;12.30;67.83;100934.44;5040175;28;44982;-86
2021/10/18 07:38:04;;;;;;;;;26.75;26.00;;;;;12.55;66.99;100936.53;5041632;28;45232;-85
2021/10/18 07:40:29;;;;;;;;;28.50;23.25;;;;;12.77;65.92;100940.66;5041414;28;45172;-86
2021/10/18 07:42:55;;;;;;;;;26.00;24.00;;;;;12.91;65.95;100929.13;5042360;28;45184;-85
2021/10/18 07:45:21;;;;;;;;;28.50;24.00;;;;;12.95;65.69;100922.66;5041106;28;45349;-87
2021/10/18 07:47:47;;;;;;;;;19.75;18.50;;;;;13.04;65.51;100923.94;5042890;28;45141;-85
2021/10/18 07:50:13;;;;;;;;;28.00;25.25;;;;;13.04;65.12;100923.94;5042452;28;45116;-86
2021/10/18 07:52:41;;;;;;;;;21.75;19.00;;;;;13.01;65.08;100929.47;5042203;28;44595;-86
2021/10/18 07:55:17;;;;;;;;;21.25;21.25;;;;;12.95;65.54;100938.69;5041823;28;45189;-86
2021/10/18 07:57:44;;;;;;;;;25.00;22.00;;;;;13.00;65.89;100943.75;5041483;28;44981;-84
2021/10/18 08:00:11;;;;;;;;;21.25;19.75;;;;;13.05;65.78;100947.88;5041615;28;45164;-85
2021/10/18 08:02:36;;;;;;;;;22.50;22.50;;;;;13.07;65.79;100939.78;5026515;28;45211;-86
2021/10/18 08:05:01;;;;;;;;;17.25;15.25;;;;;13.19;65.74;100941.69;4997463;28;45310;-85
2021/10/18 08:07:29;;;;;;;;;22.25;22.25;;;;;13.27;65.53;100947.44;4996559;28;45183;-85
2021/10/18 08:09:55;;;;;;;;;19.75;19.50;;;;;13.33;65.17;100948.03;4996662;28;45233;-86
2021/10/18 08:12:21;;;;;;;;;21.25;19.75;;;;;13.35;65.42;100957.69;4996035;28;45130;-86
2021/10/18 08:14:46;;;;;;;;;27.25;23.00;;;;;13.34;65.25;100945.28;4996234;28;46388;-86
2021/10/18 08:17:12;;;;;;;;;18.75;18.00;;;;;13.41;65.10;100959.13;4995201;28;45209;-86
2021/10/18 08:19:37;;;;;;;;;23.50;21.50;;;;;13.45;65.08;100964.22;5011774;28;45278;-85
2021/10/18 08:22:02;;;;;;;;;20.25;20.25;;;;;13.54;65.44;100961.91;4996455;28;45221;-86
2021/10/18 08:24:28;;;;;;;;;20.50;20.25;;;;;13.58;65.20;100945.63;4978740;28;46184;-86
2021/10/18 08:26:53;;;;;;;;;23.50;21.25;;;;;13.66;64.90;100942.47;4996847;28;45230;-85
2021/10/18 08:29:18;;;;;;;;;23.50;19.75;;;;;13.66;65.28;100941.59;4996453;28;45160;-85
2021/10/18 08:31:44;;;;;;;;;24.75;20.00;;;;;13.69;64.65;100947.59;4995649;28;45113;-86
2021/10/18 08:34:09;;;;;;;;;19.75;18.25;;;;;13.73;64.98;100951.81;4996180;28;45239;-85
2021/10/18 08:36:37;;;;;;;;;19.75;19.00;;;;;13.76;64.68;100950.75;4996345;28;45237;-86
2021/10/18 08:41:43;;;;;;;;;19.75;18.75;;;;;14.00;65.26;100951.03;4996380;28;45216;-86
2021/10/18 08:44:15;;;;;;;;;20.50;18.50;;;;;14.14;64.89;100939.47;4995507;28;46038;-86
2021/10/18 08:46:41;;;;;;;;;21.00;19.75;;;;;14.27;64.48;100942.22;4999358;28;45814;-86
2021/10/18 08:49:06;;;;;;;;;26.75;21.25;;;;;14.31;64.37;100931.19;4999711;28;45200;-85
2021/10/18 08:51:32;;;;;;;;;28.50;23.00;;;;;14.38;64.55;100934.34;4999176;28;45213;-86
2021/10/18 08:53:57;;;;;;;;;19.25;16.75;;;;;14.42;64.58;100935.88;4999187;28;45998;-85
2021/10/18 08:56:23;;;;;;;;;19.50;17.75;;;;;14.38;64.51;100934.34;4999132;28;45212;-86
2021/10/18 08:58:48;;;;;;;;;18.00;18.00;;;;;14.42;64.64;100933.19;4998611;28;45244;-86
2021/10/18 09:01:14;;;;;;;;;18.50;17.50;;;;;14.50;64.59;100932.66;4999283;28;45439;-86
2021/10/18 09:03:40;;;;;;;;;19.25;17.50;;;;;14.56;64.27;100932.25;4998758;28;45381;-86
2021/10/18 09:06:12;;;;;;;;;22.00;17.50;;;;;14.57;64.04;100941.16;4998868;28;45201;-86
2021/10/18 09:08:39;;;;;;;;;18.25;16.25;;;;;14.57;64.05;100933.97;4979195;28;45261;-86
2021/10/18 09:11:08;;;;;;;;;19.25;17.50;;;;;14.61;64.38;100948.88;4978685;28;45217;-86
2021/10/18 09:13:34;;;;;;;;;23.25;20.50;;;;;14.69;64.04;100960.94;4989949;28;45849;-86
2021/10/18 09:16:01;;;;;;;;;23.50;18.00;;;;;14.73;63.91;100951.75;4998598;28;45463;-86
2021/10/18 09:18:26;;;;;;;;;16.25;16.25;;;;;14.81;63.89;100941.38;4998766;28;45396;-86
2021/10/18 09:20:52;;;;;;;;;24.75;20.00;;;;;14.84;63.94;100950.06;4999186;28;45458;-85
2021/10/18 09:23:35;;;;;;;;;23.50;19.50;;;;;14.92;63.38;100965.63;4999013;28;45965;-87
2021/10/18 09:26:09;;;;;;;;;18.00;16.25;;;;;14.92;63.67;100954.03;4998881;28;45673;-86
2021/10/18 09:28:35;;;;;;;;;21.25;21.00;;;;;14.91;63.86;100944.31;4998328;28;45240;-86
2021/10/18 09:31:01;;;;;;;;;17.75;16.75;;;;;14.94;63.82;100944.94;4999263;28;45231;-86
2021/10/18 09:35:57;;;;;;;;;18.25;18.00;;;;;14.95;64.01;100945.78;4998691;28;45235;-86
2021/10/18 09:38:24;;;;;;;;;23.75;18.50;;;;;14.94;64.01;100941.41;4998479;28;45200;-85
2021/10/18 09:40:51;;;;;;;;;19.50;16.75;;;;;14.93;64.20;100926.31;4998449;28;45244;-85
2021/10/18 09:43:30;;;;;;;;;20.25;18.00;;;;;14.94;64.34;100928.88;4988746;28;45968;-86
2021/10/18 09:46:02;;;;;;;;;23.25;20.25;;;;;14.96;64.37;100931.44;4984952;28;45209;-86
2021/10/18 10:53:39;;;;;;;;;18.25;16.25;;;;;18.40;58.44;100923.78;5017891;28;45239;-86
2021/10/18 10:56:45;;;;;;;;;18.50;17.50;;;;;18.63;58.79;100920.00;5016853;28;45214;-86
2021/10/18 10:59:21;;;;;;;;;21.00;16.00;;;;;18.90;58.10;100916.00;4955162;28;45343;-86
2021/10/18 11:01:48;;;;;;;;;20.25;17.25;;;;;18.98;55.50;100923.44;4959135;28;45447;-85
2021/10/18 11:04:31;;;;;;;;;20.25;16.50;;;;;18.76;56.89;100933.31;4940748;28;45281;-86
2021/10/18 11:07:07;;;;;;;;;15.75;12.00;;;;;18.56;57.89;100943.06;4959210;28;45320;-79
2021/10/18 11:09:35;;;;;;;;;17.50;17.50;;;;;18.37;57.77;100941.03;4969313;28;45252;-80
2021/10/18 11:12:01;;;;;;;;;17.25;16.00;;;;;18.26;57.87;100939.22;4956658;28;46190;-80
2021/10/18 11:14:26;;;;;;;;;16.25;15.00;;;;;18.23;58.70;100933.25;4967603;28;45337;-81
2021/10/18 11:16:52;;;;;;;;;20.00;15.25;;;;;18.19;58.45;100932.63;4969435;28;45261;-80
2021/10/18 11:19:21;;;;;;;;;16.50;15.25;;;;;18.16;58.56;100929.34;4976885;28;45190;-79
2021/10/18 11:21:54;;;;;;;;;14.25;12.75;;;;;18.12;58.93;100942.19;4971134;28;47082;-80
2021/10/18 11:24:21;;;;;;;;;16.25;16.00;;;;;17.88;59.55;100921.63;4959683;28;45286;-80
2021/10/18 11:26:46;;;;;;;;;15.50;15.50;;;;;17.80;60.17;100918.72;4957255;28;45111;-80
2021/10/18 11:29:12;;;;;;;;;16.50;14.50;;;;;17.67;60.51;100912.56;4965266;28;45302;-82
2021/10/18 11:31:43;;;;;;;;;13.75;13.00;;;;;17.56;60.94;100900.84;4955122;28;45355;-82
2021/10/18 11:34:10;;;;;;;;;15.50;14.25;;;;;17.58;60.93;100885.44;5013517;28;45552;-81
2021/10/18 11:36:37;;;;;;;;;17.00;16.25;;;;;17.59;61.20;100881.78;5016076;28;45326;-82
2021/10/18 11:39:22;;;;;;;;;16.50;14.75;;;;;17.57;61.35;100869.44;5017038;28;45268;-81
2021/10/18 11:42:07;;;;;;;;;17.75;15.75;;;;;17.57;60.94;100885.56;4998828;28;47433;-79
2021/10/18 11:44:57;;;;;;;;;15.75;14.75;;;;;17.47;61.82;100871.16;5016014;28;45562;-80
2021/10/18 11:47:31;;;;;;;;;16.00;14.00;;;;;17.43;61.88;100871.41;5016131;28;45188;-80
2021/10/18 11:50:14;;;;;;;;;15.00;14.25;;;;;17.47;62.19;100863.94;5016407;28;45330;-81
2021/10/18 11:52:58;;;;;;;;;16.50;12.75;;;;;17.52;62.35;100861.75;4982211;28;47991;-82
2021/10/18 11:55:32;;;;;;;;;17.75;13.50;;;;;17.64;61.83;100876.03;5014913;28;45720;-83
2021/10/18 11:58:04;;;;;;;;;18.00;13.75;;;;;17.80;61.96;100869.41;5014902;28;45247;-81
2021/10/18 12:00:44;;;;;;;;;16.75;12.75;;;;;18.04;61.09;100870.16;5014881;28;45284;-80
2021/10/18 12:03:11;;;;;;;;;18.00;15.50;;;;;18.27;61.12;100862.88;5015005;28;46978;-80
2021/10/18 12:05:42;;;;;;;;;20.00;17.00;;;;;18.39;60.56;100855.59;5015859;28;45287;-80
2021/10/18 12:08:08;;;;;;;;;19.50;16.50;;;;;18.53;60.41;100851.75;5015881;28;45295;-81
2021/10/18 12:10:34;;;;;;;;;15.00;14.25;;;;;18.69;60.11;100856.69;5016273;28;45259;-80
2021/10/18 12:13:09;;;;;;;;;15.25;14.50;;;;;18.69;59.59;100863.94;5016167;28;46128;-80
2021/10/18 12:15:59;;;;;;;;;13.75;13.75;;;;;18.69;59.88;100870.16;5016259;28;45651;-80
2021/10/18 12:18:45;;;;;;;;;13.75;12.50;;;;;18.73;60.20;100868.94;5006310;28;45357;-80
2021/10/18 12:21:12;;;;;;;;;19.50;15.75;;;;;18.83;60.03;100863.63;5015101;28;45212;-80
2021/10/18 12:23:49;;;;;;;;;13.75;12.50;;;;;18.90;60.52;100870.22;5014513;28;46109;-80